Time;durP1;ratioP1;P1;durP2;ratioP2;P2;SDS_P1;SDS_P2;PMS_P1;PMS_P2;Temp;Humidity;BMP_temperature;BMP_pressure;BME280_temperature;BME280_humidity;BME280_pressure;Samples;Min_cycle;Max_cycle;Signal;HPM_P1;HPM_P2
2022/12/19 00:04:22;;;;;;;;;;;;;;;-0.34;99.7998;101749.7;;;;-75
2022/12/19 00:09:22;;;;;;;;;;;;;;;-0.32;99.94336;101740.6;;;;-75
2022/12/19 00:14:22;;;;;;;;;;;;;;;-0.28;100;101731.2;;;;-75
2022/12/19 00:19:22;;;;;;;;;;;;;;;-0.25;100;101746;;;;-76
2022/12/19 00:22:27;;;;;;;22.5;9.2;;;;;;;;;;;;;-74
2022/12/19 00:24:22;;;;;;;;;;;;;;;-0.23;100;101735.4;;;;-73
2022/12/19 00:29:24;;;;;;;;;;;;;;;-0.21;100;101726.6;;;;-73
2022/12/19 00:34:22;;;;;;;;;;;;;;;-0.19;100;101721.2;;;;-74
2022/12/19 00:39:22;;;;;;;;;;;;;;;-0.15;100;101718.9;;;;-74
2022/12/19 00:44:23;;;;;;;;;;;;;;;-0.13;100;101685.8;;;;-78
2022/12/19 00:49:22;;;;;;;;;;;;;;;-0.11;100;101678.7;;;;-78
2022/12/19 00:52:26;;;;;;;21.7;8.7;;;;;;;;;;;;;-78
2022/12/19 00:54:22;;;;;;;;;;;;;;;-0.05;100;101673.2;;;;-79
2022/12/19 00:59:22;;;;;;;;;;;;;;;-0.01;100;101680;;;;-79
2022/12/19 01:04:22;;;;;;;;;;;;;;;0.02;100;101667.3;;;;-79
2022/12/19 01:09:22;;;;;;;;;;;;;;;0.05;100;101654.7;;;;-78
2022/12/19 01:14:23;;;;;;;;;;;;;;;0.08;100;101655.3;;;;-79
2022/12/19 01:19:22;;;;;;;;;;;;;;;0.13;100;101641.6;;;;-79
2022/12/19 01:22:25;;;;;;;18.4;7.8;;;;;;;;;;;;;-78
2022/12/19 01:24:22;;;;;;;;;;;;;;;0.16;100;101637.3;;;;-78
2022/12/19 01:29:22;;;;;;;;;;;;;;;0.22;100;101640.5;;;;-80
2022/12/19 01:34:22;;;;;;;;;;;;;;;0.27;100;101621.5;;;;-79
2022/12/19 01:39:25;;;;;;;;;;;;;;;0.31;100;101615;;;;-79
2022/12/19 01:44:27;;;;;;;;;;;;;;;0.33;100;101592.3;;;;-79
2022/12/19 01:49:27;;;;;;;;;;;;;;;0.35;100;101589.5;;;;-79
2022/12/19 01:52:24;;;;;;;19.3;7.6;;;;;;;;;;;;;-80
2022/12/19 01:54:24;;;;;;;;;;;;;;;0.37;100;101598.1;;;;-80
2022/12/19 01:59:23;;;;;;;;;;;;;;;0.38;100;101591.1;;;;-78
2022/12/19 02:04:23;;;;;;;;;;;;;;;0.41;100;101589.1;;;;-78
2022/12/19 02:09:22;;;;;;;;;;;;;;;0.44;100;101583.3;;;;-79
2022/12/19 02:14:27;;;;;;;;;;;;;;;0.48;100;101565;;;;-79
2022/12/19 02:19:38;;;;;;;;;;;;;;;0.5;100;101558.9;;;;-79
2022/12/19 02:22:27;;;;;;;18.9;8;;;;;;;;;;;;;-79
2022/12/19 02:24:33;;;;;;;;;;;;;;;0.58;100;101566.4;;;;-78
2022/12/19 02:29:33;;;;;;;;;;;;;;;0.62;100;101555;;;;-78
2022/12/19 02:34:28;;;;;;;;;;;;;;;0.65;100;101542.5;;;;-74
2022/12/19 02:39:27;;;;;;;;;;;;;;;0.68;100;101532.6;;;;-74
2022/12/19 02:44:24;;;;;;;;;;;;;;;0.71;100;101520.1;;;;-73
2022/12/19 02:49:22;;;;;;;;;;;;;;;0.8;100;101520.6;;;;-73
2022/12/19 02:52:32;;;;;;;21.7;8.4;;;;;;;;;;;;;-74
2022/12/19 02:54:22;;;;;;;;;;;;;;;0.87;100;101516.3;;;;-74
2022/12/19 02:59:28;;;;;;;;;;;;;;;0.9;100;101499.9;;;;-74
2022/12/19 03:04:27;;;;;;;;;;;;;;;0.99;100;101498.6;;;;-74
2022/12/19 03:09:27;;;;;;;;;;;;;;;1.03;100;101505.5;;;;-74
2022/12/19 03:14:23;;;;;;;;;;;;;;;1.05;100;101492.2;;;;-74
2022/12/19 03:19:22;;;;;;;;;;;;;;;1.11;100;101489.3;;;;-74
2022/12/19 03:22:21;;;;;;;17;7.7;;;;;;;;;;;;;-74
2022/12/19 03:24:22;;;;;;;;;;;;;;;1.18;100;101482.7;;;;-78
2022/12/19 03:29:24;;;;;;;;;;;;;;;1.24;100;101473.7;;;;-78
2022/12/19 03:34:23;;;;;;;;;;;;;;;1.31;100;101464;;;;-78
2022/12/19 03:39:23;;;;;;;;;;;;;;;1.42;100;101469.3;;;;-79
2022/12/19 03:44:24;;;;;;;;;;;;;;;1.42;100;101466.4;;;;-79
2022/12/19 03:49:22;;;;;;;;;;;;;;;1.47;100;101455.3;;;;-78
2022/12/19 03:52:25;;;;;;;17.1;6.7;;;;;;;;;;;;;-78
2022/12/19 03:54:26;;;;;;;;;;;;;;;1.53;100;101453.5;;;;-78
2022/12/19 03:59:24;;;;;;;;;;;;;;;1.59;100;101445.4;;;;-78
2022/12/19 04:04:23;;;;;;;;;;;;;;;1.66;100;101433.1;;;;-78
2022/12/19 04:09:24;;;;;;;;;;;;;;;1.7;100;101439.9;;;;-78
2022/12/19 04:14:26;;;;;;;;;;;;;;;1.78;100;101429.7;;;;-78
2022/12/19 04:19:24;;;;;;;;;;;;;;;1.82;100;101430;;;;-78
2022/12/19 04:22:25;;;;;;;12.5;5.1;;;;;;;;;;;;;-79
2022/12/19 04:24:25;;;;;;;;;;;;;;;1.88;100;101426.2;;;;-79
2022/12/19 04:29:22;;;;;;;;;;;;;;;1.9;100;101426.7;;;;-78
2022/12/19 04:34:23;;;;;;;;;;;;;;;1.95;100;101421.6;;;;-79
2022/12/19 04:39:22;;;;;;;;;;;;;;;2.01;100;101422.3;;;;-79
2022/12/19 04:44:22;;;;;;;;;;;;;;;2.05;100;101414;;;;-78
2022/12/19 04:49:22;;;;;;;;;;;;;;;2.14;100;101417.1;;;;-79
2022/12/19 04:52:18;;;;;;;11.9;4.5;;;;;;;;;;;;;-80
2022/12/19 04:54:22;;;;;;;;;;;;;;;2.17;100;101409.2;;;;-79
2022/12/19 04:59:22;;;;;;;;;;;;;;;2.21;100;101409.7;;;;-78
2022/12/19 05:04:22;;;;;;;;;;;;;;;2.29;100;101405.2;;;;-79
2022/12/19 05:09:22;;;;;;;;;;;;;;;2.32;100;101396.5;;;;-79
2022/12/19 05:14:22;;;;;;;;;;;;;;;2.32;100;101391;;;;-79
2022/12/19 05:19:22;;;;;;;;;;;;;;;2.41;100;101379.5;;;;-80
2022/12/19 05:22:18;;;;;;;9;4.8;;;;;;;;;;;;;-80
2022/12/19 05:24:22;;;;;;;;;;;;;;;2.41;100;101388;;;;-79
2022/12/19 05:29:22;;;;;;;;;;;;;;;2.45;100;101386.7;;;;-75
2022/12/19 05:34:22;;;;;;;;;;;;;;;2.51;100;101385.2;;;;-74
2022/12/19 05:39:22;;;;;;;;;;;;;;;2.55;100;101386.4;;;;-75
2022/12/19 05:44:22;;;;;;;;;;;;;;;2.58;100;101388.2;;;;-73
2022/12/19 05:49:22;;;;;;;;;;;;;;;2.69;100;101388.5;;;;-73
2022/12/19 05:52:19;;;;;;;7.9;4.3;;;;;;;;;;;;;-74
2022/12/19 05:54:22;;;;;;;;;;;;;;;2.76;100;101389.8;;;;-74
2022/12/19 05:59:22;;;;;;;;;;;;;;;2.78;100;101384.2;;;;-74
2022/12/19 06:04:22;;;;;;;;;;;;;;;2.83;100;101388.8;;;;-74
2022/12/19 06:09:22;;;;;;;;;;;;;;;2.91;100;101381.1;;;;-75
2022/12/19 06:14:22;;;;;;;;;;;;;;;2.93;100;101373.4;;;;-75
2022/12/19 06:19:25;;;;;;;;;;;;;;;2.99;100;101369.4;;;;-73
2022/12/19 06:22:16;;;;;;;8.9;4.5;;;;;;;;;;;;;-74
2022/12/19 06:24:22;;;;;;;;;;;;;;;3.12;100;101374.7;;;;-75
2022/12/19 06:29:22;;;;;;;;;;;;;;;3.16;100;101367;;;;-75
2022/12/19 06:34:22;;;;;;;;;;;;;;;3.27;100;101371.3;;;;-75
2022/12/19 06:39:22;;;;;;;;;;;;;;;3.35;100;101372.8;;;;-74
2022/12/19 06:44:22;;;;;;;;;;;;;;;3.41;100;101369.8;;;;-74
2022/12/19 06:49:22;;;;;;;;;;;;;;;3.52;100;101371.8;;;;-75
2022/12/19 06:52:15;;;;;;;8.5;4.9;;;;;;;;;;;;;-75
2022/12/19 06:54:22;;;;;;;;;;;;;;;3.62;100;101377.4;;;;-74
2022/12/19 06:59:22;;;;;;;;;;;;;;;3.71;100;101371.8;;;;-74
2022/12/19 07:04:25;;;;;;;;;;;;;;;3.79;100;101375.1;;;;-75
2022/12/19 07:09:22;;;;;;;;;;;;;;;3.85;100;101381.1;;;;-74
2022/12/19 07:14:22;;;;;;;;;;;;;;;3.92;100;101386.9;;;;-80
2022/12/19 07:19:22;;;;;;;;;;;;;;;3.98;100;101377.1;;;;-81
2022/12/19 07:22:15;;;;;;;10;5.1;;;;;;;;;;;;;-80
2022/12/19 07:24:22;;;;;;;;;;;;;;;4.06;100;101388.9;;;;-81
2022/12/19 07:29:22;;;;;;;;;;;;;;;4.19;100;101387.7;;;;-79
2022/12/19 07:34:22;;;;;;;;;;;;;;;4.18;100;101387.1;;;;-80
2022/12/19 07:39:22;;;;;;;;;;;;;;;4.23;100;101385.9;;;;-80
2022/12/19 07:44:22;;;;;;;;;;;;;;;4.31;100;101389.9;;;;-80
2022/12/19 07:49:22;;;;;;;;;;;;;;;4.39;100;101402.9;;;;-75
2022/12/19 07:52:14;;;;;;;11.6;6.1;;;;;;;;;;;;;-75
2022/12/19 07:54:22;;;;;;;;;;;;;;;4.46;100;101397.4;;;;-75
2022/12/19 07:59:22;;;;;;;;;;;;;;;4.5;100;101399.6;;;;-76
2022/12/19 08:04:22;;;;;;;;;;;;;;;4.53;100;101400.4;;;;-75
2022/12/19 08:09:22;;;;;;;;;;;;;;;4.58;100;101395;;;;-75
2022/12/19 08:14:22;;;;;;;;;;;;;;;4.63;100;101390.1;;;;-75
2022/12/19 08:19:22;;;;;;;;;;;;;;;4.68;100;101399.9;;;;-75
2022/12/19 08:22:13;;;;;;;15.3;7.1;;;;;;;;;;;;;-75
2022/12/19 08:24:22;;;;;;;;;;;;;;;4.69;100;101400.8;;;;-75
2022/12/19 08:29:22;;;;;;;;;;;;;;;4.78;100;101412.4;;;;-75
2022/12/19 08:34:22;;;;;;;;;;;;;;;4.8;100;101411.7;;;;-75
2022/12/19 08:39:22;;;;;;;;;;;;;;;4.84;100;101410.7;;;;-74
2022/12/19 08:44:22;;;;;;;;;;;;;;;4.93;100;101410.9;;;;-74
2022/12/19 08:49:22;;;;;;;;;;;;;;;4.92;100;101400.2;;;;-76
2022/12/19 08:52:12;;;;;;;16.2;6.4;;;;;;;;;;;;;-75
2022/12/19 08:54:22;;;;;;;;;;;;;;;5.01;100;101401.8;;;;-76
2022/12/19 08:59:23;;;;;;;;;;;;;;;5.09;100;101406;;;;-76
2022/12/19 09:04:22;;;;;;;;;;;;;;;5.09;100;101402.5;;;;-75
2022/12/19 09:09:25;;;;;;;;;;;;;;;5.11;100;101412.4;;;;-75
2022/12/19 09:14:22;;;;;;;;;;;;;;;5.17;100;101432.1;;;;-75
2022/12/19 09:19:21;;;;;;;;;;;;;;;5.24;100;101427.4;;;;-75
2022/12/19 09:22:12;;;;;;;12.4;6;;;;;;;;;;;;;-75
2022/12/19 09:24:22;;;;;;;;;;;;;;;5.22;100;101416.4;;;;-75
2022/12/19 09:29:22;;;;;;;;;;;;;;;5.28;100;101425.2;;;;-74
2022/12/19 09:34:22;;;;;;;;;;;;;;;5.39;100;101427.8;;;;-75
2022/12/19 09:39:22;;;;;;;;;;;;;;;5.45;100;101420.8;;;;-75
2022/12/19 09:44:26;;;;;;;;;;;;;;;5.42;100;101437;;;;-75
2022/12/19 09:49:28;;;;;;;;;;;;;;;5.5;100;101459.8;;;;-75
2022/12/19 09:52:13;;;;;;;11.4;5.1;;;;;;;;;;;;;-75
2022/12/19 09:54:24;;;;;;;;;;;;;;;5.51;100;101440;;;;-75
2022/12/19 09:59:28;;;;;;;;;;;;;;;5.53;100;101441.1;;;;-75
2022/12/19 10:04:22;;;;;;;;;;;;;;;5.56;100;101426.9;;;;-75
2022/12/19 10:09:23;;;;;;;;;;;;;;;5.62;100;101440.1;;;;-76
2022/12/19 10:14:33;;;;;;;;;;;;;;;5.58;100;101423.3;;;;-75
2022/12/19 10:19:27;;;;;;;;;;;;;;;5.6;100;101435;;;;-76
2022/12/19 10:22:15;;;;;;;11.4;6;;;;;;;;;;;;;-74
2022/12/19 10:24:30;;;;;;;;;;;;;;;5.74;100;101431.3;;;;-75
2022/12/19 10:29:33;;;;;;;;;;;;;;;5.78;100;101435.8;;;;-80
2022/12/19 10:34:23;;;;;;;;;;;;;;;5.85;100;101439.3;;;;-80
2022/12/19 10:39:27;;;;;;;;;;;;;;;5.91;100;101441.1;;;;-81
2022/12/19 10:44:22;;;;;;;;;;;;;;;5.93;100;101432.4;;;;-80
2022/12/19 10:49:23;;;;;;;;;;;;;;;5.97;100;101436.2;;;;-81
2022/12/19 10:52:12;;;;;;;12.6;6.1;;;;;;;;;;;;;-80
2022/12/19 10:54:22;;;;;;;;;;;;;;;6;100;101431;;;;-79
2022/12/19 10:59:23;;;;;;;;;;;;;;;6.01;100;101427.6;;;;-80
2022/12/19 11:04:29;;;;;;;;;;;;;;;6.02;100;101418.9;;;;-80
2022/12/19 11:09:30;;;;;;;;;;;;;;;6.07;100;101409.8;;;;-80
2022/12/19 11:14:28;;;;;;;;;;;;;;;6.11;100;101407.9;;;;-80
2022/12/19 11:19:29;;;;;;;;;;;;;;;6.15;100;101408.3;;;;-80
2022/12/19 11:22:22;;;;;;;7.9;4.7;;;;;;;;;;;;;-80
2022/12/19 11:24:25;;;;;;;;;;;;;;;6.14;100;101408;;;;-80
2022/12/19 11:29:26;;;;;;;;;;;;;;;6.23;100;101403;;;;-79
2022/12/19 11:34:23;;;;;;;;;;;;;;;6.23;100;101400.5;;;;-81
2022/12/19 11:39:24;;;;;;;;;;;;;;;6.23;100;101392.5;;;;-80
2022/12/19 11:44:27;;;;;;;;;;;;;;;6.3;100;101380.7;;;;-81
2022/12/19 11:49:27;;;;;;;;;;;;;;;6.3;100;101387.3;;;;-74
2022/12/19 11:52:14;;;;;;;10.9;4.9;;;;;;;;;;;;;-75
2022/12/19 11:54:24;;;;;;;;;;;;;;;6.38;100;101392.4;;;;-74
2022/12/19 11:59:24;;;;;;;;;;;;;;;6.42;100;101394.1;;;;-74
2022/12/19 12:04:34;;;;;;;;;;;;;;;6.46;100;101384;;;;-74
2022/12/19 12:09:29;;;;;;;;;;;;;;;6.46;100;101378.1;;;;-75
2022/12/19 12:14:24;;;;;;;;;;;;;;;6.51;100;101379.8;;;;-74
2022/12/19 12:19:28;;;;;;;;;;;;;;;6.49;100;101371.3;;;;-75
2022/12/19 12:22:15;;;;;;;10.4;5.1;;;;;;;;;;;;;-74
2022/12/19 12:24:30;;;;;;;;;;;;;;;6.49;100;101370.9;;;;-74
2022/12/19 12:29:24;;;;;;;;;;;;;;;6.5;100;101370.4;;;;-74
2022/12/19 12:34:37;;;;;;;;;;;;;;;6.51;100;101357.3;;;;-75
2022/12/19 12:39:23;;;;;;;;;;;;;;;6.59;100;101364.3;;;;-75
2022/12/19 12:44:25;;;;;;;;;;;;;;;6.58;100;101366.5;;;;-74
2022/12/19 12:49:35;;;;;;;;;;;;;;;6.63;100;101362.5;;;;-74
2022/12/19 12:52:14;;;;;;;8.3;4.4;;;;;;;;;;;;;-75
2022/12/19 12:54:22;;;;;;;;;;;;;;;6.62;100;101353.9;;;;-74
2022/12/19 12:59:31;;;;;;;;;;;;;;;6.61;100;101353.7;;;;-74
2022/12/19 13:04:29;;;;;;;;;;;;;;;6.68;100;101351.5;;;;-74
2022/12/19 13:09:29;;;;;;;;;;;;;;;6.69;100;101346.8;;;;-75
2022/12/19 13:14:32;;;;;;;;;;;;;;;6.71;100;101339.8;;;;-74
2022/12/19 13:19:23;;;;;;;;;;;;;;;6.69;100;101334.1;;;;-74
2022/12/19 13:22:18;;;;;;;7.9;4.3;;;;;;;;;;;;;-74
2022/12/19 13:24:26;;;;;;;;;;;;;;;6.71;100;101325.2;;;;-74
2022/12/19 13:29:35;;;;;;;;;;;;;;;6.65;100;101310.7;;;;-74
2022/12/19 13:34:24;;;;;;;;;;;;;;;6.74;100;101300.8;;;;-73
2022/12/19 13:39:30;;;;;;;;;;;;;;;6.78;100;101293.5;;;;-73
2022/12/19 13:44:25;;;;;;;;;;;;;;;6.79;100;101287.9;;;;-73
2022/12/19 13:49:25;;;;;;;;;;;;;;;6.78;100;101286.8;;;;-79
2022/12/19 13:52:13;;;;;;;8.4;4.3;;;;;;;;;;;;;-79
2022/12/19 13:54:27;;;;;;;;;;;;;;;6.77;100;101274.8;;;;-81
2022/12/19 13:59:29;;;;;;;;;;;;;;;6.8;100;101278.3;;;;-80
2022/12/19 14:04:28;;;;;;;;;;;;;;;6.83;100;101285.5;;;;-80
2022/12/19 14:09:30;;;;;;;;;;;;;;;6.83;100;101288.4;;;;-80
2022/12/19 14:19:28;;;;;;;;;;;;;;;6.84;100;101281.1;;;;-78
2022/12/19 14:22:17;;;;;;;7.9;4.3;;;;;;;;;;;;;-80
2022/12/19 14:24:23;;;;;;;;;;;;;;;6.86;100;101279.6;;;;-80
2022/12/19 14:29:24;;;;;;;;;;;;;;;6.85;100;101278.5;;;;-74
2022/12/19 14:34:24;;;;;;;;;;;;;;;6.84;100;101275.3;;;;-76
2022/12/19 14:39:24;;;;;;;;;;;;;;;6.86;100;101272.8;;;;-78
2022/12/19 14:44:23;;;;;;;;;;;;;;;6.86;100;101280.9;;;;-78
2022/12/19 14:49:35;;;;;;;;;;;;;;;6.89;100;101299.9;;;;-78
2022/12/19 14:52:22;;;;;;;8;4.6;;;;;;;;;;;;;-79
2022/12/19 14:54:25;;;;;;;;;;;;;;;6.89;100;101312.2;;;;-78
2022/12/19 14:59:28;;;;;;;;;;;;;;;6.86;100;101316.3;;;;-77
2022/12/19 15:04:26;;;;;;;;;;;;;;;6.86;100;101308.3;;;;-80
2022/12/19 15:09:25;;;;;;;;;;;;;;;6.78;100;101292.6;;;;-73
2022/12/19 15:14:26;;;;;;;;;;;;;;;6.77;100;101293.3;;;;-74
2022/12/19 15:19:21;;;;;;;;;;;;;;;6.77;100;101282.9;;;;-74
2022/12/19 15:22:11;;;;;;;8.1;4.3;;;;;;;;;;;;;-73
2022/12/19 15:24:22;;;;;;;;;;;;;;;6.74;100;101268.8;;;;-73
2022/12/19 15:29:25;;;;;;;;;;;;;;;6.69;100;101272.1;;;;-74
2022/12/19 15:34:25;;;;;;;;;;;;;;;6.68;100;101265.3;;;;-74
2022/12/19 15:39:21;;;;;;;;;;;;;;;6.64;100;101300.5;;;;-74
2022/12/19 15:44:24;;;;;;;;;;;;;;;6.6;100;101287.9;;;;-73
2022/12/19 15:49:23;;;;;;;;;;;;;;;6.59;100;101284.6;;;;-74
2022/12/19 15:52:15;;;;;;;9.7;4.4;;;;;;;;;;;;;-74
2022/12/19 15:54:22;;;;;;;;;;;;;;;6.56;100;101277.5;;;;-75
2022/12/19 15:59:25;;;;;;;;;;;;;;;6.58;100;101280.9;;;;-73
2022/12/19 16:04:22;;;;;;;;;;;;;;;7.05;100;101280.3;;;;-73
2022/12/19 16:09:26;;;;;;;;;;;;;;;6.88;100;101282;;;;-72
2022/12/19 16:14:22;;;;;;;;;;;;;;;6.7;100;101295.4;;;;-74
2022/12/19 16:19:32;;;;;;;;;;;;;;;6.62;100;101305.3;;;;-74
2022/12/19 16:22:17;;;;;;;8.7;3.9;;;;;;;;;;;;;-75
2022/12/19 16:24:22;;;;;;;;;;;;;;;6.64;100;101301.9;;;;-74
2022/12/19 16:29:25;;;;;;;;;;;;;;;6.61;100;101296.3;;;;-74
2022/12/19 16:34:22;;;;;;;;;;;;;;;6.61;100;101285.1;;;;-72
2022/12/19 16:39:22;;;;;;;;;;;;;;;6.58;100;101279.1;;;;-73
2022/12/19 16:44:24;;;;;;;;;;;;;;;6.58;100;101281.1;;;;-74
2022/12/19 16:49:22;;;;;;;;;;;;;;;6.51;100;101276.2;;;;-73
2022/12/19 16:52:12;;;;;;;13.2;4.4;;;;;;;;;;;;;-75
2022/12/19 16:54:21;;;;;;;;;;;;;;;6.48;100;101272.5;;;;-74
2022/12/19 16:59:23;;;;;;;;;;;;;;;6.42;100;101265.1;;;;-74
2022/12/19 17:04:22;;;;;;;;;;;;;;;6.39;100;101271.2;;;;-74
2022/12/19 17:09:22;;;;;;;;;;;;;;;6.37;100;101269.6;;;;-74
2022/12/19 17:14:23;;;;;;;;;;;;;;;6.29;100;101270.4;;;;-74
2022/12/19 17:19:26;;;;;;;;;;;;;;;6.27;100;101271.1;;;;-73
2022/12/19 17:22:13;;;;;;;8.3;4.3;;;;;;;;;;;;;-74
2022/12/19 17:24:22;;;;;;;;;;;;;;;6.2;100;101269.6;;;;-73
2022/12/19 17:29:21;;;;;;;;;;;;;;;6.17;100;101273.8;;;;-74
2022/12/19 17:34:25;;;;;;;;;;;;;;;6.17;100;101275.3;;;;-75
2022/12/19 17:39:26;;;;;;;;;;;;;;;6.11;100;101273.4;;;;-75
2022/12/19 17:44:21;;;;;;;;;;;;;;;6.1;100;101272.8;;;;-74
2022/12/19 17:49:24;;;;;;;;;;;;;;;6.11;100;101265.8;;;;-75
2022/12/19 17:52:13;;;;;;;9.1;4.6;;;;;;;;;;;;;-75
2022/12/19 17:54:22;;;;;;;;;;;;;;;6.09;100;101267.8;;;;-73
2022/12/19 17:59:22;;;;;;;;;;;;;;;6.1;100;101274.5;;;;-75
2022/12/19 18:04:25;;;;;;;;;;;;;;;6.08;100;101276.4;;;;-74
2022/12/19 18:09:25;;;;;;;;;;;;;;;6.08;100;101283.8;;;;-75
2022/12/19 18:14:22;;;;;;;;;;;;;;;6.09;100;101275.8;;;;-74
2022/12/19 18:19:28;;;;;;;;;;;;;;;6.09;100;101274.7;;;;-74
2022/12/19 18:22:14;;;;;;;10.7;4.8;;;;;;;;;;;;;-74
2022/12/19 18:24:22;;;;;;;;;;;;;;;6.11;100;101257.3;;;;-74
2022/12/19 18:29:21;;;;;;;;;;;;;;;6.1;100;101272.2;;;;-74
2022/12/19 18:34:25;;;;;;;;;;;;;;;6.11;100;101275.7;;;;-75
2022/12/19 18:39:25;;;;;;;;;;;;;;;6.1;100;101268.6;;;;-75
2022/12/19 18:44:22;;;;;;;;;;;;;;;6.06;100;101281.8;;;;-75
2022/12/19 18:49:21;;;;;;;;;;;;;;;6.04;100;101296;;;;-74
2022/12/19 18:52:13;;;;;;;9.8;4.6;;;;;;;;;;;;;-75
2022/12/19 18:54:22;;;;;;;;;;;;;;;5.99;100;101292.8;;;;-76
2022/12/19 18:59:21;;;;;;;;;;;;;;;5.98;100;101289.9;;;;-76
2022/12/19 19:04:21;;;;;;;;;;;;;;;5.99;100;101300;;;;-75
2022/12/19 19:09:22;;;;;;;;;;;;;;;5.99;100;101306.4;;;;-75
2022/12/19 19:14:21;;;;;;;;;;;;;;;5.96;100;101297;;;;-74
2022/12/19 19:19:22;;;;;;;;;;;;;;;5.98;100;101309.4;;;;-74
2022/12/19 19:22:11;;;;;;;10.1;4.4;;;;;;;;;;;;;-75
2022/12/19 19:24:23;;;;;;;;;;;;;;;6.02;100;101319.9;;;;-74
2022/12/19 19:29:21;;;;;;;;;;;;;;;6.07;100;101316.2;;;;-74
2022/12/19 19:34:23;;;;;;;;;;;;;;;6.11;100;101314.8;;;;-75
2022/12/19 19:39:22;;;;;;;;;;;;;;;6.17;100;101316.1;;;;-75
2022/12/19 19:44:21;;;;;;;;;;;;;;;6.2;100;101319;;;;-74
2022/12/19 19:49:22;;;;;;;;;;;;;;;6.26;100;101322.6;;;;-74
2022/12/19 19:52:11;;;;;;;8.2;4.6;;;;;;;;;;;;;-75
2022/12/19 19:54:22;;;;;;;;;;;;;;;6.34;100;101324.5;;;;-74
2022/12/19 19:59:21;;;;;;;;;;;;;;;6.41;100;101312.8;;;;-74
2022/12/19 20:04:23;;;;;;;;;;;;;;;6.4;100;101314.2;;;;-75
2022/12/19 20:09:21;;;;;;;;;;;;;;;6.43;100;101307;;;;-75
2022/12/19 20:14:21;;;;;;;;;;;;;;;6.51;100;101300.2;;;;-75
2022/12/19 20:19:21;;;;;;;;;;;;;;;6.53;100;101312.9;;;;-75
2022/12/19 20:22:11;;;;;;;8.5;4.9;;;;;;;;;;;;;-74
2022/12/19 20:24:21;;;;;;;;;;;;;;;6.55;100;101312.2;;;;-75
2022/12/19 20:29:21;;;;;;;;;;;;;;;6.54;100;101313.2;;;;-74
2022/12/19 20:34:22;;;;;;;;;;;;;;;6.55;100;101308.4;;;;-75
2022/12/19 20:39:22;;;;;;;;;;;;;;;6.63;100;101320.5;;;;-75
2022/12/19 20:44:22;;;;;;;;;;;;;;;6.67;100;101330.3;;;;-74
2022/12/19 20:49:21;;;;;;;;;;;;;;;6.68;100;101325.7;;;;-74
2022/12/19 20:52:11;;;;;;;9.7;4.8;;;;;;;;;;;;;-74
2022/12/19 20:54:22;;;;;;;;;;;;;;;6.74;100;101313.9;;;;-74
2022/12/19 20:59:22;;;;;;;;;;;;;;;6.8;100;101323.6;;;;-73
2022/12/19 21:04:21;;;;;;;;;;;;;;;6.8;100;101326.1;;;;-75
2022/12/19 21:09:21;;;;;;;;;;;;;;;6.82;100;101328;;;;-74
2022/12/19 21:14:21;;;;;;;;;;;;;;;6.85;100;101330.1;;;;-75
2022/12/19 21:19:21;;;;;;;;;;;;;;;6.87;100;101345.6;;;;-74
2022/12/19 21:22:11;;;;;;;9.7;4.7;;;;;;;;;;;;;-75
2022/12/19 21:24:21;;;;;;;;;;;;;;;6.85;100;101335.5;;;;-75
2022/12/19 21:29:21;;;;;;;;;;;;;;;6.92;100;101321.8;;;;-75
2022/12/19 21:34:21;;;;;;;;;;;;;;;6.94;100;101317.6;;;;-74
2022/12/19 21:39:24;;;;;;;;;;;;;;;6.98;100;101309.9;;;;-73
2022/12/19 21:44:21;;;;;;;;;;;;;;;7;100;101315;;;;-74
2022/12/19 21:49:21;;;;;;;;;;;;;;;7.02;100;101304.1;;;;-73
2022/12/19 21:52:11;;;;;;;11.5;4.7;;;;;;;;;;;;;-75
2022/12/19 21:54:21;;;;;;;;;;;;;;;7.03;100;101303.3;;;;-75
2022/12/19 21:59:21;;;;;;;;;;;;;;;7.05;100;101301.4;;;;-74
2022/12/19 22:04:25;;;;;;;;;;;;;;;7.1;100;101300.7;;;;-74
2022/12/19 22:09:22;;;;;;;;;;;;;;;7.09;100;101301.3;;;;-74
2022/12/19 22:14:21;;;;;;;;;;;;;;;7.08;100;101297.4;;;;-74
2022/12/19 22:19:22;;;;;;;;;;;;;;;7.05;100;101295.9;;;;-75
2022/12/19 22:22:11;;;;;;;9.3;4.6;;;;;;;;;;;;;-75
2022/12/19 22:24:23;;;;;;;;;;;;;;;7.08;100;101287;;;;-75
2022/12/19 22:29:21;;;;;;;;;;;;;;;7.06;100;101283.2;;;;-74
2022/12/19 22:34:22;;;;;;;;;;;;;;;7.05;100;101277.8;;;;-74
2022/12/19 22:39:23;;;;;;;;;;;;;;;7.03;100;101281.6;;;;-74
2022/12/19 22:44:23;;;;;;;;;;;;;;;7;100;101277.6;;;;-74
2022/12/19 22:49:22;;;;;;;;;;;;;;;7.03;100;101282.2;;;;-74
2022/12/19 22:52:12;;;;;;;10;4.4;;;;;;;;;;;;;-74
2022/12/19 22:54:21;;;;;;;;;;;;;;;7.01;100;101281.8;;;;-75
2022/12/19 22:59:21;;;;;;;;;;;;;;;6.98;100;101277.4;;;;-73
2022/12/19 23:04:21;;;;;;;;;;;;;;;6.96;100;101293.2;;;;-74
2022/12/19 23:09:22;;;;;;;;;;;;;;;6.94;100;101290.3;;;;-74
2022/12/19 23:14:22;;;;;;;;;;;;;;;6.89;100;101280.3;;;;-73
2022/12/19 23:19:21;;;;;;;;;;;;;;;6.87;100;101283.9;;;;-73
2022/12/19 23:22:12;;;;;;;11.4;4.3;;;;;;;;;;;;;-73
2022/12/19 23:24:21;;;;;;;;;;;;;;;6.87;100;101280.1;;;;-72
2022/12/19 23:29:21;;;;;;;;;;;;;;;6.84;100;101277.5;;;;-73
2022/12/19 23:34:21;;;;;;;;;;;;;;;6.81;100;101274.9;;;;-73
2022/12/19 23:39:21;;;;;;;;;;;;;;;6.8;100;101270.9;;;;-73
2022/12/19 23:44:21;;;;;;;;;;;;;;;6.79;100;101271.7;;;;-73
2022/12/19 23:49:21;;;;;;;;;;;;;;;6.79;100;101259.4;;;;-73
2022/12/19 23:52:12;;;;;;;8.1;4.2;;;;;;;;;;;;;-74
2022/12/19 23:54:22;;;;;;;;;;;;;;;6.81;100;101265.9;;;;-74
2022/12/19 23:59:21;;;;;;;;;;;;;;;6.8;100;101259.6;;;;-74
